createdAt,value
2023-05-19T00:02:21.142Z,9.70
2023-05-19T00:04:49.727Z,9.70
2023-05-19T00:07:18.753Z,9.70
2023-05-19T00:09:46.057Z,9.70
2023-05-19T00:12:13.998Z,9.70
2023-05-19T00:17:09.157Z,9.70
2023-05-19T00:19:36.073Z,9.70
2023-05-19T00:22:03.153Z,9.70
2023-05-19T00:26:57.427Z,9.70
2023-05-19T00:29:24.412Z,9.60
2023-05-19T00:34:18.826Z,9.60
2023-05-19T00:36:45.805Z,9.60
2023-05-19T00:39:12.689Z,9.60
2023-05-19T00:41:39.600Z,9.50
2023-05-19T00:44:07.185Z,9.50
2023-05-19T00:49:01.787Z,9.40
2023-05-19T00:51:29.717Z,9.40
2023-05-19T00:53:56.812Z,9.30
2023-05-19T00:56:23.826Z,9.30
2023-05-19T00:58:51.511Z,9.30
2023-05-19T01:03:48.937Z,9.40
2023-05-19T01:06:15.806Z,9.40
2023-05-19T01:08:42.833Z,9.30
2023-05-19T01:11:10.452Z,10.60
2023-05-19T01:13:38.154Z,9.40
2023-05-19T01:16:34.955Z,9.40
2023-05-19T01:19:20.928Z,9.30
2023-05-19T01:22:23.083Z,9.30
2023-05-19T01:25:21.460Z,9.30
2023-05-19T01:28:13.164Z,9.30
2023-05-19T01:30:47.998Z,9.30
2023-05-19T01:33:14.920Z,10.00
2023-05-19T01:35:42.610Z,12.40
2023-05-19T01:38:10.205Z,9.90
2023-05-19T01:40:38.291Z,9.20
2023-05-19T01:43:05.638Z,9.20
2023-05-19T01:45:33.336Z,9.10
2023-05-19T01:48:03.220Z,9.10
2023-05-19T01:50:30.927Z,10.50
2023-05-19T01:52:58.231Z,9.10
2023-05-19T01:55:25.154Z,9.10
2023-05-19T01:58:09.077Z,9.00
2023-05-19T02:00:42.166Z,9.10
2023-05-19T02:03:20.956Z,9.00
2023-05-19T02:05:54.011Z,10.20
2023-05-19T02:09:04.588Z,8.90
2023-05-19T02:11:40.104Z,8.90
2023-05-19T02:14:13.827Z,8.80
2023-05-19T02:16:40.866Z,9.90
2023-05-19T02:19:09.159Z,8.60
2023-05-19T02:21:36.034Z,8.60
2023-05-19T02:24:03.244Z,8.60
2023-05-19T02:26:30.298Z,8.50
2023-05-19T02:28:57.226Z,8.50
2023-05-19T02:31:24.167Z,8.40
2023-05-19T02:33:51.331Z,8.40
2023-05-19T02:36:19.189Z,8.30
2023-05-19T02:38:46.333Z,8.30
2023-05-19T02:41:13.179Z,8.20
2023-05-19T02:43:40.019Z,8.20
2023-05-19T02:46:07.061Z,8.20
2023-05-19T02:48:33.995Z,8.20
2023-05-19T02:51:00.933Z,8.10
2023-05-19T02:55:55.612Z,8.10
2023-05-19T02:58:23.052Z,8.10
2023-05-19T03:00:49.913Z,8.10
2023-05-19T03:03:17.164Z,8.10
2023-05-19T03:05:45.066Z,8.00
2023-05-19T03:08:12.269Z,8.10
2023-05-19T03:10:39.718Z,8.00
2023-05-19T03:13:06.897Z,8.00
2023-05-19T03:18:02.450Z,7.90
2023-05-19T03:23:01.644Z,7.90
2023-05-19T03:25:32.992Z,7.80
2023-05-19T03:30:32.038Z,7.70
2023-05-19T03:33:02.375Z,7.70
2023-05-19T03:40:27.943Z,5.60
2023-05-19T03:42:59.961Z,7.50
2023-05-19T03:52:54.560Z,7.50
2023-05-19T03:55:23.565Z,7.60
2023-05-19T03:57:52.754Z,7.60
2023-05-19T04:00:22.356Z,7.40
2023-05-19T04:02:50.857Z,7.60
2023-05-19T04:10:15.373Z,7.70
2023-05-19T04:12:47.004Z,7.80
2023-05-19T04:17:42.808Z,8.00
2023-05-19T04:20:12.552Z,11.40
2023-05-19T04:22:39.552Z,8.20
2023-05-19T04:27:39.023Z,8.50
2023-05-19T04:30:06.613Z,8.60
2023-05-19T04:32:33.512Z,9.00
2023-05-19T04:37:27.951Z,7.90
2023-05-19T04:42:22.263Z,8.90
2023-05-19T04:44:51.929Z,9.00
2023-05-19T04:47:21.767Z,9.30
2023-05-19T04:54:48.758Z,9.70
2023-05-19T04:59:42.971Z,9.80
2023-05-19T05:02:09.801Z,10.00
2023-05-19T05:07:04.528Z,10.40
2023-05-19T05:09:31.333Z,10.40
2023-05-19T05:11:58.283Z,10.50
2023-05-19T05:14:25.451Z,10.60
2023-05-19T05:21:49.628Z,10.70
2023-05-19T05:26:44.308Z,11.00
2023-05-19T05:29:11.269Z,10.90
2023-05-19T05:31:38.179Z,11.20
2023-05-19T05:34:09.541Z,11.10
2023-05-19T05:39:04.311Z,11.20
2023-05-19T05:41:35.323Z,11.00
2023-05-19T05:44:02.681Z,12.30
2023-05-19T05:46:29.696Z,11.10
2023-05-19T05:48:56.944Z,11.90
2023-05-19T05:51:24.192Z,11.40
2023-05-19T05:53:53.099Z,11.30
2023-05-19T05:56:20.879Z,11.20
2023-05-19T05:58:47.932Z,11.20
2023-05-19T06:01:16.963Z,11.10
2023-05-19T06:03:45.236Z,12.20
2023-05-19T06:06:14.186Z,12.40
2023-05-19T06:11:12.861Z,12.30
2023-05-19T06:13:47.005Z,12.80
2023-05-19T06:16:18.986Z,12.60
2023-05-19T06:18:50.063Z,12.70
2023-05-19T06:23:53.179Z,12.40
2023-05-19T06:26:20.347Z,12.50
2023-05-19T06:28:57.620Z,12.20
2023-05-19T06:31:27.687Z,12.30
2023-05-19T06:33:57.237Z,12.90
2023-05-19T06:36:25.627Z,12.80
2023-05-19T06:38:55.861Z,13.20
2023-05-19T06:46:59.460Z,13.80
2023-05-19T06:49:34.012Z,13.80
2023-05-19T06:52:08.649Z,13.60
2023-05-19T06:57:37.229Z,14.10
2023-05-19T07:00:36.097Z,14.30
2023-05-19T07:03:28.780Z,15.00
2023-05-19T07:06:11.535Z,14.80
2023-05-19T07:37:46.100Z,12.80
2023-05-19T07:45:31.088Z,12.50
2023-05-19T07:47:58.349Z,12.50
2023-05-19T07:50:25.741Z,12.40
2023-05-19T07:52:52.572Z,12.30
2023-05-19T07:58:13.162Z,12.40
2023-05-19T08:10:46.885Z,12.30
2023-05-19T08:13:15.544Z,12.20
2023-05-19T08:18:10.055Z,11.70
2023-05-19T08:23:04.926Z,11.80
2023-05-19T08:30:28.243Z,12.20
2023-05-19T08:32:55.243Z,11.90
2023-05-19T08:35:22.417Z,12.10
2023-05-19T08:37:53.765Z,12.10
2023-05-19T08:40:22.189Z,12.10
2023-05-19T08:42:49.123Z,12.10
2023-05-19T08:47:47.735Z,12.20
2023-05-19T08:50:27.853Z,12.30
2023-05-19T08:53:32.560Z,12.30
2023-05-19T08:56:10.700Z,12.30
2023-05-19T08:59:03.095Z,12.80
2023-05-19T09:07:14.742Z,13.20
2023-05-19T09:10:38.737Z,13.50
2023-05-19T09:22:23.897Z,13.30
2023-05-19T09:24:52.779Z,13.10
2023-05-19T09:30:10.653Z,12.70
2023-05-19T09:35:08.280Z,12.50
2023-05-19T09:42:46.693Z,12.90
2023-05-19T09:45:17.466Z,13.10
2023-05-19T09:47:46.165Z,13.00
2023-05-19T09:50:14.415Z,12.80
2023-05-19T10:16:16.868Z,13.40
2023-05-19T10:19:13.579Z,13.10
2023-05-19T10:27:43.727Z,13.00
2023-05-19T10:30:23.573Z,13.20
2023-05-19T11:05:35.383Z,13.00
2023-05-19T11:09:14.298Z,13.30
2023-05-19T11:32:14.306Z,12.90
2023-05-19T11:37:12.769Z,12.80
2023-05-19T11:43:12.055Z,12.90
2023-05-19T12:00:24.674Z,13.10
2023-05-19T12:22:59.840Z,13.40
2023-05-19T12:26:10.102Z,13.90
2023-05-19T12:43:52.176Z,15.10
2023-05-19T12:49:38.608Z,15.00
2023-05-19T12:57:51.178Z,15.60
2023-05-19T13:00:21.058Z,15.50
2023-05-19T13:03:02.163Z,16.00
2023-05-19T13:05:29.835Z,16.50
2023-05-19T13:08:08.663Z,16.00
2023-05-19T13:10:36.846Z,15.60
2023-05-19T13:13:04.180Z,15.60
2023-05-19T13:15:34.581Z,15.30
2023-05-19T13:18:03.558Z,15.50
2023-05-19T13:20:31.221Z,15.30
2023-05-19T13:22:58.189Z,15.30
2023-05-19T13:25:25.202Z,15.20
2023-05-19T13:45:04.774Z,15.40
2023-05-19T13:50:42.271Z,15.30
2023-05-19T13:59:21.251Z,15.10
2023-05-19T14:24:57.087Z,16.10
2023-05-19T14:27:24.113Z,16.40
2023-05-19T14:29:51.062Z,16.40
2023-05-19T14:39:40.279Z,16.70
2023-05-19T14:42:07.081Z,16.70
2023-05-19T14:44:33.978Z,16.70
2023-05-19T14:47:01.777Z,16.70
2023-05-19T14:49:28.555Z,16.80
2023-05-19T14:51:55.483Z,16.70
2023-05-19T14:54:22.402Z,16.50
2023-05-19T14:56:49.191Z,16.90
2023-05-19T14:59:16.028Z,16.40
2023-05-19T15:01:42.959Z,16.40
2023-05-19T15:06:37.167Z,16.80
2023-05-19T15:09:04.039Z,16.90
2023-05-19T15:11:31.061Z,16.90
2023-05-19T15:18:52.644Z,16.90
2023-05-19T15:21:19.551Z,17.20
2023-05-19T15:28:40.994Z,16.80
2023-05-19T15:31:07.857Z,16.80
2023-05-19T15:33:35.017Z,16.70
2023-05-19T15:36:01.824Z,16.80
2023-05-19T15:38:30.030Z,16.90
2023-05-19T15:40:57.434Z,16.90
2023-05-19T15:45:55.104Z,16.80
2023-05-19T15:48:22.021Z,17.20
2023-05-19T15:50:48.946Z,16.70
2023-05-19T15:53:15.739Z,16.60
2023-05-19T15:55:42.520Z,16.90
2023-05-19T15:58:09.339Z,17.00
2023-05-19T16:00:36.260Z,17.20
2023-05-19T16:03:03.232Z,17.30
2023-05-19T16:10:24.559Z,17.30
2023-05-19T16:12:51.253Z,17.20
2023-05-19T16:15:18.254Z,17.20
2023-05-19T16:17:45.128Z,17.30
2023-05-19T16:20:12.363Z,17.20
2023-05-19T16:22:39.127Z,17.20
2023-05-19T16:25:06.639Z,17.20
2023-05-19T16:30:01.332Z,17.40
2023-05-19T16:32:28.234Z,18.00
2023-05-19T16:34:55.066Z,17.30
2023-05-19T16:37:21.836Z,17.10
2023-05-19T16:39:48.666Z,16.90
2023-05-19T16:44:43.312Z,16.50
2023-05-19T16:49:37.780Z,16.40
2023-05-19T16:52:04.823Z,16.70
2023-05-19T16:54:31.580Z,16.40
2023-05-19T16:56:58.342Z,16.30
2023-05-19T16:59:25.095Z,17.10
2023-05-19T17:01:52.019Z,16.30
2023-05-19T17:04:18.892Z,16.30
2023-05-19T17:06:46.448Z,16.10
2023-05-19T17:09:13.258Z,16.10
2023-05-19T17:11:40.086Z,16.00
2023-05-19T17:14:09.105Z,16.40
2023-05-19T17:16:36.521Z,16.00
2023-05-19T17:19:03.893Z,16.20
2023-05-19T17:21:31.823Z,15.90
2023-05-19T17:26:26.525Z,15.70
2023-05-19T17:28:53.336Z,15.60
2023-05-19T17:31:20.148Z,16.10
2023-05-19T17:33:47.117Z,15.50
2023-05-19T17:36:13.960Z,15.50
2023-05-19T17:38:42.074Z,15.50
2023-05-19T17:43:41.442Z,16.90
2023-05-19T17:46:08.468Z,15.30
2023-05-19T17:48:36.413Z,15.40
2023-05-19T17:51:05.066Z,15.40
2023-05-19T17:53:33.030Z,15.40
2023-05-19T17:56:03.797Z,15.30
2023-05-19T17:58:31.081Z,15.30
2023-05-19T18:03:26.359Z,15.20
2023-05-19T18:08:21.304Z,15.20
2023-05-19T18:10:51.292Z,15.10
2023-05-19T18:13:18.250Z,15.00
2023-05-19T18:18:12.773Z,15.00
2023-05-19T18:20:41.289Z,15.00
2023-05-19T18:23:08.689Z,14.90
2023-05-19T18:25:36.081Z,15.00
2023-05-19T18:28:03.402Z,14.90
2023-05-19T18:30:30.374Z,12.20
2023-05-19T18:32:57.651Z,14.80
2023-05-19T18:35:25.148Z,14.80
2023-05-19T18:37:56.738Z,14.70
2023-05-19T18:40:24.840Z,14.60
2023-05-19T18:42:52.157Z,14.60
2023-05-19T18:45:19.596Z,14.60
2023-05-19T18:50:15.767Z,14.50
2023-05-19T18:52:43.415Z,14.40
2023-05-19T18:55:11.035Z,14.30
2023-05-19T19:58:00.120Z,14.00
2023-05-19T20:13:10.984Z,13.90
2023-05-19T20:15:43.158Z,14.00
2023-05-19T20:18:16.253Z,14.00
2023-05-19T20:20:46.776Z,14.00
2023-05-19T21:07:02.044Z,13.80
2023-05-19T21:53:34.464Z,13.10
2023-05-19T22:07:33.148Z,13.00
2023-05-19T22:15:39.130Z,12.90
2023-05-19T22:21:02.732Z,12.80
2023-05-19T22:44:33.826Z,12.10
2023-05-19T22:51:58.114Z,11.90
2023-05-19T22:54:25.908Z,11.80
2023-05-19T22:59:23.612Z,11.80
2023-05-19T23:01:51.309Z,11.70
2023-05-19T23:09:15.959Z,11.50
2023-05-19T23:11:42.851Z,13.60
2023-05-19T23:19:17.835Z,11.40
2023-05-19T23:21:45.926Z,11.40
2023-05-19T23:24:13.368Z,11.60
2023-05-19T23:26:44.111Z,11.30
2023-05-19T23:29:13.182Z,11.30
2023-05-19T23:31:42.135Z,11.30
2023-05-19T23:41:46.006Z,11.30
2023-05-19T23:46:41.283Z,11.20
2023-05-19T23:51:35.838Z,11.10
2023-05-19T23:54:03.542Z,11.00
2023-05-19T23:56:30.347Z,11.00
2023-05-19T23:58:57.511Z,12.30
